In Rescue
 
Open Full Screen Window  High Contrast Mode
Wind Gusting 00 knots
05
May 20, 2019 12:10 PM CDT
Weather Information
Wind Direction
  340 °
Wind Speed
  05 kt (6 mph)
Wind Gust
  00 kt (0 mph)
Altimeter
30.17 in
Visibility
10 SM
Temperature
14° C
57° F
Dewpoint
03° C
37° F
Humidity
48%
1hr Rain Fall
00.00 in.
24hr Rain Fall
00.00 in.
Sky Condition
Clear
VFR

METAR KAQP 201710Z AUTO 34005KT 10SM CLR 14/03 A3017 RMK AO2

FAA Disclaimer: The data displayed is for advisory purposes only and is not to be used for flight planning or operations.